Campo, California
Current Conditions -  °F | °C
As of 6:45 PM on Tuesday 21 Oct 2014 (Local Time) from MMTJ Reporting Station
Few Clouds Few Clouds  
Wind Chill: 68°   Ceiling: Unl
Heat Index: 68°   Visibility: 5mi
Dew Point: 59°   Wind: 7mph
Humidity: 73%   Direction: 280°W
Pressure: 29.88"   Gusts: NA
Location:  32.61°N, 116.47°W
Report Text: MMTJ 220145Z 28006KT 5SM FEW200 20/15 A2988 RMK 8/001
Loading
Personal Weather Stations






























Interactive Weather Map
Tropical Storm Tracking
New forecast layout! Learn more

10-Day Weather Forecast

Advertisements
Track Severe Weather on mobile